Time;durP1;ratioP1;P1;durP2;ratioP2;P2;SDS_P1;SDS_P2;PMS_P1;PMS_P2;Temp;Humidity;BMP_temperature;BMP_pressure;BME280_temperature;BME280_humidity;BME280_pressure;Samples;Min_cycle;Max_cycle;Signal;HPM_P1;HPM_P2
2023/10/06 00:07:14;;;;;;;106.63;46.88;;;10.20;99.90;;;;;;25884639;23;20074;-52
2023/10/06 00:17:19;;;;;;;92.55;44.75;;;10.30;99.90;;;;;;25841941;23;20304;-52
2023/10/06 00:27:24;;;;;;;105.45;45.78;;;10.40;99.90;;;;;;25841065;23;20082;-51
2023/10/06 00:37:26;;;;;;;86.80;41.20;;;10.50;99.90;;;;;;25856128;23;20016;-51
2023/10/06 00:47:38;;;;;;;104.45;46.13;;;10.50;99.90;;;;;;25840543;23;20525;-49
2023/10/06 00:57:40;;;;;;;87.50;39.83;;;10.40;99.90;;;;;;25882229;23;20406;-49
2023/10/06 01:07:45;;;;;;;85.72;40.10;;;10.50;99.90;;;;;;25813275;23;20027;-51
2023/10/06 01:17:48;;;;;;;86.32;39.60;;;10.40;99.90;;;;;;25812787;23;20066;-59
2023/10/06 01:27:50;;;;;;;94.05;43.35;;;10.10;99.90;;;;;;25839064;23;20087;-50
2023/10/06 01:37:57;;;;;;;84.93;40.58;;;9.90;99.90;;;;;;25838850;23;20012;-56
2023/10/06 01:48:22;;;;;;;87.28;40.30;;;9.80;99.90;;;;;;25880471;23;20058;-60
2023/10/06 01:58:20;;;;;;;93.82;42.55;;;9.80;99.90;;;;;;25837531;23;20004;-52
2023/10/06 02:08:23;;;;;;;82.88;40.20;;;9.80;99.90;;;;;;25837407;23;20367;-50
2023/10/06 02:18:36;;;;;;;79.90;39.92;;;10.10;99.90;;;;;;25810030;23;20038;-53
2023/10/06 02:28:48;;;;;;;84.20;39.47;;;10.20;99.90;;;;;;25867126;23;20035;-49
2023/10/06 02:38:51;;;;;;;80.30;39.20;;;10.10;99.90;;;;;;25548885;23;20071;-52
2023/10/06 02:48:53;;;;;;;82.38;38.92;;;9.90;99.90;;;;;;25574693;23;20006;-59
2023/10/06 02:58:59;;;;;;;71.60;35.63;;;9.90;99.90;;;;;;25573827;23;20009;-59
2023/10/06 03:09:07;;;;;;;74.72;37.50;;;10.10;99.90;;;;;;25792741;23;20016;-59
2023/10/06 03:19:12;;;;;;;67.80;34.90;;;10.40;99.90;;;;;;25859136;23;20004;-60
2023/10/06 03:29:28;;;;;;;66.68;34.83;;;10.70;99.90;;;;;;25875297;23;20016;-59
2023/10/06 03:39:38;;;;;;;67.63;34.38;;;11.10;99.90;;;;;;25884661;23;20012;-53
2023/10/06 03:49:42;;;;;;;55.00;30.70;;;11.40;99.90;;;;;;25884458;23;20443;-59
2023/10/06 03:59:45;;;;;;;56.25;31.35;;;11.70;99.90;;;;;;25814995;23;20062;-51
2023/10/06 04:09:49;;;;;;;43.95;27.13;;;11.80;99.90;;;;;;25841767;23;20004;-53
2023/10/06 04:19:51;;;;;;;40.33;27.20;;;12.00;99.90;;;;;;25840442;23;20061;-59
2023/10/06 04:29:53;;;;;;;37.72;24.73;;;12.20;99.90;;;;;;25840751;23;20086;-52
2023/10/06 04:39:54;;;;;;;42.47;26.17;;;12.30;99.90;;;;;;25840384;23;20456;-59
2023/10/06 04:49:56;;;;;;;38.22;25.00;;;12.30;99.90;;;;;;25840433;23;20309;-59
2023/10/06 04:59:58;;;;;;;40.63;25.23;;;12.10;99.90;;;;;;25839304;23;20013;-53
2023/10/06 05:10:00;;;;;;;39.13;24.90;;;11.80;99.90;;;;;;25812102;23;20004;-52
2023/10/06 05:20:04;;;;;;;36.15;23.17;;;11.60;99.90;;;;;;25838900;23;20378;-52
2023/10/06 05:30:06;;;;;;;39.85;25.17;;;11.50;99.90;;;;;;25837989;23;20444;-52
2023/10/06 05:40:12;;;;;;;41.53;24.67;;;11.30;99.90;;;;;;25837944;23;20038;-52
2023/10/06 05:50:35;;;;;;;40.80;25.48;;;11.20;99.90;;;;;;25837684;23;20070;-51
2023/10/06 06:00:43;;;;;;;38.55;25.00;;;11.20;99.90;;;;;;25879513;23;20011;-52
2023/10/06 06:10:46;;;;;;;44.75;26.58;;;11.10;99.90;;;;;;25878986;23;20020;-53
2023/10/06 06:20:47;;;;;;;41.58;25.50;;;11.00;99.90;;;;;;25836219;23;20023;-49
2023/10/06 06:30:50;;;;;;;34.83;23.50;;;11.00;99.90;;;;;;25836433;23;20016;-51
2023/10/06 06:40:53;;;;;;;36.22;23.10;;;11.20;99.90;;;;;;25836078;23;20468;-52
2023/10/06 06:50:55;;;;;;;37.03;21.40;;;11.30;99.90;;;;;;25834484;23;20057;-59
2023/10/06 07:00:57;;;;;;;30.98;21.33;;;11.20;99.90;;;;;;25835558;23;20008;-59
2023/10/06 07:11:09;;;;;;;27.67;19.90;;;11.60;99.90;;;;;;25835206;23;20031;-59
2023/10/06 07:21:11;;;;;;;24.88;17.88;;;12.00;99.90;;;;;;25877307;23;20497;-52
2023/10/06 07:31:13;;;;;;;23.52;16.25;;;12.90;99.90;;;;;;25835060;23;20118;-50
2023/10/06 07:41:25;;;;;;;21.40;15.43;;;13.70;99.90;;;;;;25835150;23;20063;-51
2023/10/06 07:51:28;;;;;;;20.30;15.57;;;14.10;99.90;;;;;;25876694;23;20007;-60
2023/10/06 08:01:34;;;;;;;21.70;15.50;;;14.70;99.90;;;;;;25840257;23;20011;-49
2023/10/06 08:11:39;;;;;;;20.00;14.75;;;15.20;99.90;;;;;;25883504;23;20004;-56
2023/10/06 08:21:41;;;;;;;19.75;14.48;;;15.50;99.90;;;;;;25841146;23;20008;-53
2023/10/06 08:31:42;;;;;;;18.23;14.25;;;16.20;99.90;;;;;;25840603;23;20008;-51
2023/10/06 08:41:46;;;;;;;17.80;13.80;;;16.80;99.90;;;;;;25840197;23;20062;-62
2023/10/06 08:51:50;;;;;;;18.90;13.85;;;17.90;99.90;;;;;;25839980;23;20058;-53
2023/10/06 09:01:52;;;;;;;14.75;10.90;;;18.80;99.90;;;;;;25839194;23;20004;-52
2023/10/06 09:11:54;;;;;;;16.92;13.43;;;19.90;99.90;;;;;;25839191;23;20022;-63
2023/10/06 09:22:05;;;;;;;22.70;17.13;;;19.40;99.90;;;;;;25839029;23;20067;-52
2023/10/06 09:32:22;;;;;;;22.52;16.50;;;19.10;99.90;;;;;;25858435;23;20012;-63
2023/10/06 09:42:29;;;;;;;28.60;19.02;;;19.50;99.90;;;;;;25880320;23;20014;-62
2023/10/06 09:52:34;;;;;;;20.65;16.25;;;20.30;99.90;;;;;;25879816;23;20008;-49
2023/10/06 10:02:40;;;;;;;24.60;18.95;;;20.70;99.90;;;;;;25837050;23;20004;-61
2023/10/06 10:13:01;;;;;;;24.65;17.45;;;21.10;99.90;;;;;;25878830;23;20004;-48
2023/10/06 10:23:03;;;;;;;18.95;14.95;;;21.10;99.90;;;;;;25878482;23;20094;-52
2023/10/06 10:33:07;;;;;;;21.75;17.25;;;20.80;99.90;;;;;;25835669;23;20082;-50
2023/10/06 10:43:14;;;;;;;26.90;16.58;;;19.90;99.90;;;;;;25835772;23;20462;-49
2023/10/06 10:53:18;;;;;;;19.92;14.75;;;19.30;99.90;;;;;;25877688;23;20007;-49
2023/10/06 11:03:19;;;;;;;20.33;14.65;;;20.50;99.90;;;;;;25835690;23;20076;-63
2023/10/06 11:13:21;;;;;;;17.48;13.75;;;22.20;99.90;;;;;;25835219;23;20011;-51
2023/10/06 11:23:23;;;;;;;17.83;14.20;;;21.30;99.90;;;;;;25835435;23;20414;-47
2023/10/06 11:33:26;;;;;;;18.10;14.68;;;22.50;99.90;;;;;;25839315;23;20015;-52
2023/10/06 11:43:30;;;;;;;19.38;14.63;;;22.90;99.90;;;;;;25842798;23;20008;-51
2023/10/06 11:53:36;;;;;;;18.48;13.40;;;22.90;99.90;;;;;;25842203;23;20008;-48
2023/10/06 12:03:39;;;;;;;18.17;14.45;;;22.20;99.90;;;;;;25883825;23;20379;-50
2023/10/06 12:13:41;;;;;;;20.38;13.20;;;21.50;99.90;;;;;;25843381;23;20004;-51
2023/10/06 12:23:45;;;;;;;19.15;12.27;;;21.90;99.90;;;;;;25840988;23;20008;-49
2023/10/06 12:33:47;;;;;;;17.27;12.30;;;22.60;99.90;;;;;;25840099;23;20110;-63
2023/10/06 12:43:48;;;;;;;13.68;10.63;;;23.10;99.90;;;;;;25840168;23;20004;-63
2023/10/06 12:53:50;;;;;;;15.05;11.00;;;21.60;99.90;;;;;;25840095;23;20074;-63
2023/10/06 13:03:53;;;;;;;15.48;12.25;;;21.60;99.90;;;;;;25839827;23;20335;-61
2023/10/06 13:13:55;;;;;;;17.85;12.25;;;21.00;99.90;;;;;;25812064;23;20000;-63
2023/10/06 13:23:58;;;;;;;14.93;11.88;;;20.30;99.90;;;;;;25838829;23;20054;-53
2023/10/06 13:33:59;;;;;;;20.27;12.95;;;20.00;99.90;;;;;;25810911;23;20150;-63
2023/10/06 13:44:01;;;;;;;22.23;14.25;;;20.00;99.90;;;;;;25837247;23;20016;-62
2023/10/06 13:54:03;;;;;;;22.67;14.80;;;20.30;99.90;;;;;;25837242;23;20019;-56
2023/10/06 14:04:05;;;;;;;19.08;15.02;;;20.10;99.90;;;;;;25836709;23;20011;-54
2023/10/06 14:14:34;;;;;;;21.50;15.57;;;19.20;99.90;;;;;;25836816;23;20012;-54
2023/10/06 14:24:34;;;;;;;22.15;14.93;;;19.00;99.90;;;;;;25814624;23;20039;-53
2023/10/06 14:55:18;;;;;;;21.58;14.93;;;18.00;99.90;;;;;;25838387;23;20411;-52
2023/10/06 15:05:22;;;;;;;22.20;16.33;;;17.30;99.90;;;;;;25837770;23;20007;-60
2023/10/06 15:15:24;;;;;;;24.52;16.90;;;16.70;99.90;;;;;;25843765;23;20058;-54
2023/10/06 15:25:27;;;;;;;24.67;16.38;;;16.00;99.90;;;;;;25843511;23;20000;-52
2023/10/06 15:35:35;;;;;;;30.13;19.88;;;15.30;99.90;;;;;;25843009;23;20008;-51
2023/10/06 15:45:37;;;;;;;30.60;20.85;;;14.70;99.90;;;;;;25884753;23;20025;-54
2023/10/06 15:55:39;;;;;;;30.08;19.70;;;14.10;99.90;;;;;;25842352;23;20019;-50
2023/10/06 16:05:42;;;;;;;35.88;22.35;;;13.40;99.90;;;;;;25841999;23;20042;-50
2023/10/06 16:15:44;;;;;;;39.42;23.73;;;13.00;99.90;;;;;;25840546;23;20012;-59
2023/10/06 16:25:46;;;;;;;38.58;25.30;;;12.60;99.90;;;;;;25842032;23;20011;-52
2023/10/06 16:35:48;;;;;;;30.70;19.88;;;12.20;99.90;;;;;;25841358;23;20062;-59
2023/10/06 16:45:50;;;;;;;28.60;18.85;;;12.00;99.90;;;;;;25841469;23;20004;-50
2023/10/06 16:55:59;;;;;;;26.25;15.05;;;11.60;99.90;;;;;;25840999;23;20004;-50
2023/10/06 17:06:03;;;;;;;27.63;17.57;;;11.40;99.90;;;;;;25882210;23;20066;-52
2023/10/06 17:16:05;;;;;;;26.50;16.13;;;11.10;99.90;;;;;;25839772;23;20007;-47
2023/10/06 17:26:07;;;;;;;32.17;18.25;;;10.90;99.90;;;;;;25839501;23;20015;-52
2023/10/06 17:36:09;;;;;;;52.58;37.13;;;10.70;99.90;;;;;;25838817;23;20012;-52
2023/10/06 17:46:14;;;;;;;37.40;26.02;;;10.50;99.90;;;;;;25840334;23;20474;-59
2023/10/06 17:56:17;;;;;;;65.35;38.47;;;10.40;99.90;;;;;;25881956;23;20383;-59
2023/10/06 18:06:20;;;;;;;19.83;12.73;;;10.30;99.90;;;;;;25838021;23;20093;-58
2023/10/06 18:16:24;;;;;;;25.60;15.63;;;10.30;99.90;;;;;;25810593;23;20422;-59
2023/10/06 18:26:29;;;;;;;24.75;13.90;;;10.20;99.90;;;;;;25876515;23;20019;-59
2023/10/06 18:36:31;;;;;;;22.92;13.45;;;10.10;99.90;;;;;;25836676;23;20020;-60
2023/10/06 18:46:33;;;;;;;18.05;11.50;;;10.00;99.90;;;;;;25836534;23;20004;-59
2023/10/06 18:56:37;;;;;;;25.23;14.45;;;10.00;99.90;;;;;;25836576;23;20001;-59
2023/10/06 19:06:39;;;;;;;16.20;10.30;;;9.90;99.90;;;;;;25833517;23;20004;-59
2023/10/06 19:16:41;;;;;;;16.30;10.43;;;10.10;99.90;;;;;;25836648;23;20428;-58
2023/10/06 19:26:43;;;;;;;17.88;10.63;;;10.20;99.90;;;;;;25836329;23;20047;-51
2023/10/06 19:36:45;;;;;;;14.88;9.52;;;10.00;99.90;;;;;;25835474;23;20019;-59
2023/10/06 19:46:48;;;;;;;14.50;8.20;;;9.80;99.90;;;;;;25833841;23;20066;-50
2023/10/06 19:56:50;;;;;;;15.23;9.02;;;9.60;99.90;;;;;;25841373;23;20066;-58
2023/10/06 20:06:52;;;;;;;14.55;9.55;;;9.70;99.90;;;;;;25842928;23;20383;-58
2023/10/06 20:16:54;;;;;;;28.42;15.80;;;9.50;99.90;;;;;;25843890;23;20011;-49
2023/10/06 20:26:56;;;;;;;10.88;7.15;;;9.70;99.90;;;;;;25843387;23;20498;-58
2023/10/06 20:36:58;;;;;;;14.35;7.68;;;9.50;99.90;;;;;;25840922;23;20012;-49
2023/10/06 20:47:00;;;;;;;12.68;7.57;;;9.40;99.90;;;;;;25455593;23;20017;-51
2023/10/06 20:57:04;;;;;;;10.68;7.10;;;9.20;99.90;;;;;;25455537;23;20593;-53
2023/10/06 21:07:06;;;;;;;13.00;7.05;;;9.50;99.90;;;;;;25454900;23;20014;-48
2023/10/06 21:17:08;;;;;;;11.38;7.15;;;9.60;99.90;;;;;;25759460;23;20004;-58
2023/10/06 21:27:10;;;;;;;26.65;16.88;;;9.10;99.90;;;;;;25839366;23;20008;-58
2023/10/06 21:37:12;;;;;;;28.50;16.15;;;9.30;99.90;;;;;;25881146;23;20344;-59
2023/10/06 21:47:14;;;;;;;10.82;7.10;;;9.40;99.90;;;;;;25838997;23;20008;-52
2023/10/06 21:57:16;;;;;;;22.10;12.90;;;9.20;99.90;;;;;;25838361;23;20034;-59
2023/10/06 22:07:19;;;;;;;12.82;8.43;;;9.10;99.90;;;;;;25838131;23;20439;-51
2023/10/06 22:17:21;;;;;;;13.05;7.90;;;9.10;99.90;;;;;;25836960;23;20069;-59
2023/10/06 22:27:23;;;;;;;28.58;16.55;;;9.50;99.90;;;;;;25837353;23;20004;-58
2023/10/06 22:37:25;;;;;;;20.63;13.88;;;9.70;99.90;;;;;;25852085;23;20066;-59
2023/10/06 22:47:27;;;;;;;16.17;9.80;;;9.60;99.90;;;;;;25837320;23;20082;-58
2023/10/06 22:57:28;;;;;;;12.02;8.27;;;9.70;99.90;;;;;;25836735;23;20004;-59
2023/10/06 23:07:31;;;;;;;16.58;7.47;;;9.60;99.90;;;;;;25809996;23;20386;-59
2023/10/06 23:17:33;;;;;;;15.75;9.27;;;9.30;99.90;;;;;;25836076;23;20004;-59
2023/10/06 23:27:36;;;;;;;15.25;9.73;;;9.40;99.90;;;;;;25839137;23;20000;-59
2023/10/06 23:37:38;;;;;;;15.65;10.32;;;9.40;99.90;;;;;;25844088;23;20012;-59
2023/10/06 23:47:40;;;;;;;14.20;8.77;;;9.20;99.90;;;;;;25843781;23;20012;-59
2023/10/06 23:57:49;;;;;;;15.50;9.88;;;9.10;99.90;;;;;;25843033;23;20058;-59
